Time;durP1;ratioP1;P1;durP2;ratioP2;P2;SDS_P1;SDS_P2;PMS_P1;PMS_P2;Temp;Humidity;BMP_temperature;BMP_pressure;BME280_temperature;BME280_humidity;BME280_pressure;Samples;Min_cycle;Max_cycle;Signal;HPM_P1;HPM_P2
2023/01/06 00:01:03;;;;;;;40.72;25.02;;;10.50;99.90;;;;;;4963189;28;20054;-77
2023/01/06 00:03:29;;;;;;;43.95;25.27;;;10.50;99.90;;;;;;4984009;28;20053;-76
2023/01/06 00:06:00;;;;;;;47.63;25.30;;;10.50;99.90;;;;;;4941234;28;20594;-76
2023/01/06 00:08:26;;;;;;;36.55;22.48;;;10.50;99.90;;;;;;4970555;28;20489;-75
2023/01/06 00:10:52;;;;;;;41.38;23.77;;;10.50;99.90;;;;;;4974391;28;20404;-76
2023/01/06 00:13:18;;;;;;;37.08;22.92;;;10.50;99.90;;;;;;4988811;28;20053;-76
2023/01/06 00:15:44;;;;;;;40.28;21.90;;;10.50;99.90;;;;;;4973988;28;20054;-76
2023/01/06 00:18:09;;;;;;;43.35;23.48;;;10.50;99.90;;;;;;4959362;28;20042;-75
2023/01/06 00:20:35;;;;;;;44.08;24.00;;;10.50;99.90;;;;;;4974616;28;20068;-75
2023/01/06 00:23:03;;;;;;;42.15;22.95;;;10.50;99.90;;;;;;4973813;28;21549;-76
2023/01/06 00:25:29;;;;;;;40.55;23.55;;;10.50;99.90;;;;;;4972331;28;20124;-75
2023/01/06 00:27:55;;;;;;;34.45;21.48;;;10.60;99.90;;;;;;4988265;28;20160;-76
2023/01/06 00:30:21;;;;;;;39.80;22.90;;;10.50;99.90;;;;;;4987629;28;20188;-75
2023/01/06 00:32:47;;;;;;;33.60;21.77;;;10.60;99.90;;;;;;4990241;28;20038;-76
2023/01/06 00:35:13;;;;;;;30.42;21.17;;;10.60;99.90;;;;;;4989641;28;20038;-76
2023/01/06 00:37:39;;;;;;;34.20;22.05;;;10.60;99.90;;;;;;4984429;28;20056;-76
2023/01/06 00:40:05;;;;;;;31.17;20.25;;;10.60;99.90;;;;;;4988125;28;20045;-75
2023/01/06 00:42:31;;;;;;;32.17;21.33;;;10.60;99.90;;;;;;4991019;28;20882;-75
2023/01/06 00:44:56;;;;;;;32.80;21.67;;;10.60;99.90;;;;;;4970848;28;20057;-75
2023/01/06 00:47:22;;;;;;;28.83;20.85;;;10.60;99.90;;;;;;4988432;28;20481;-76
2023/01/06 00:49:49;;;;;;;29.83;20.10;;;10.60;99.90;;;;;;4989854;28;20034;-75
2023/01/06 00:52:15;;;;;;;31.02;21.13;;;10.60;99.90;;;;;;4988675;28;20060;-76
2023/01/06 00:54:42;;;;;;;31.42;21.98;;;10.70;99.90;;;;;;4990625;28;20103;-76
2023/01/06 00:57:08;;;;;;;25.17;19.75;;;10.60;99.90;;;;;;4956672;28;20117;-76
2023/01/06 00:59:37;;;;;;;27.45;20.33;;;10.70;99.90;;;;;;4989237;28;20532;-77
2023/01/06 01:02:03;;;;;;;23.95;19.35;;;10.70;99.90;;;;;;4972998;28;20623;-75
2023/01/06 01:04:29;;;;;;;25.90;19.33;;;10.70;99.90;;;;;;4958045;28;20144;-76
2023/01/06 01:06:54;;;;;;;19.60;17.27;;;10.70;99.90;;;;;;4987625;28;20118;-76
2023/01/06 01:09:24;;;;;;;20.80;16.92;;;10.70;99.90;;;;;;4973399;28;20080;-75
2023/01/06 01:12:09;;;;;;;22.05;17.17;;;10.70;99.90;;;;;;4986862;28;20042;-76
2023/01/06 01:14:47;;;;;;;20.05;15.98;;;10.60;99.90;;;;;;4963599;28;20053;-76
2023/01/06 01:17:18;;;;;;;22.67;17.30;;;10.60;99.90;;;;;;4965732;28;20038;-76
2023/01/06 01:19:45;;;;;;;23.50;18.45;;;10.60;99.90;;;;;;4971161;28;20046;-77
2023/01/06 01:22:10;;;;;;;21.30;17.27;;;10.50;99.90;;;;;;4955452;28;20666;-75
2023/01/06 01:24:37;;;;;;;23.63;18.50;;;10.60;99.90;;;;;;4944098;28;20057;-75
2023/01/06 01:27:03;;;;;;;20.35;17.67;;;10.60;99.90;;;;;;4956123;28;20495;-76
2023/01/06 01:29:29;;;;;;;22.38;18.42;;;10.60;99.90;;;;;;4970441;28;20037;-76
2023/01/06 01:31:55;;;;;;;19.13;17.13;;;10.60;99.90;;;;;;4970714;28;20560;-77
2023/01/06 01:34:21;;;;;;;20.95;17.63;;;10.60;99.90;;;;;;4970770;28;20053;-76
2023/01/06 01:36:49;;;;;;;19.23;17.17;;;10.60;99.90;;;;;;4989206;28;20041;-77
2023/01/06 01:39:17;;;;;;;19.63;16.98;;;10.60;99.90;;;;;;4972074;28;20137;-77
2023/01/06 01:41:43;;;;;;;23.90;17.13;;;10.60;99.90;;;;;;4982683;28;20041;-76
2023/01/06 01:44:47;;;;;;;18.67;16.13;;;10.60;99.90;;;;;;4988737;28;20145;-76
2023/01/06 01:47:17;;;;;;;18.05;15.75;;;10.60;99.90;;;;;;4971575;28;20049;-77
2023/01/06 01:49:44;;;;;;;;;;;10.60;99.90;;;;;;4984882;28;20515;-77
2023/01/06 01:52:11;;;;;;;17.67;15.20;;;10.50;99.90;;;;;;4977965;28;20382;-77
2023/01/06 01:54:39;;;;;;;18.92;14.93;;;10.50;99.90;;;;;;4969456;28;20137;-76
2023/01/06 01:57:33;;;;;;;18.60;14.85;;;10.50;99.90;;;;;;4969392;28;20553;-76
2023/01/06 02:00:00;;;;;;;16.05;13.68;;;10.60;99.90;;;;;;4964827;28;20524;-76
2023/01/06 02:02:29;;;;;;;15.90;13.27;;;10.50;99.90;;;;;;4952078;28;20603;-76
2023/01/06 02:04:55;;;;;;;18.23;14.07;;;10.50;99.90;;;;;;4983518;28;20509;-76
2023/01/06 02:07:24;;;;;;;19.67;12.23;;;10.60;99.90;;;;;;4953461;28;20132;-77
2023/01/06 02:10:09;;;;;;;16.63;11.98;;;10.60;99.90;;;;;;4966874;28;20042;-76
2023/01/06 02:12:35;;;;;;;16.15;11.73;;;10.50;99.90;;;;;;4979144;28;20046;-75
2023/01/06 02:15:01;;;;;;;14.93;11.38;;;10.50;99.90;;;;;;4966194;28;20034;-77
2023/01/06 02:18:07;;;;;;;14.73;11.98;;;10.50;99.90;;;;;;4968360;28;20046;-77
2023/01/06 02:20:36;;;;;;;16.67;11.40;;;10.60;99.90;;;;;;4984634;28;20089;-77
2023/01/06 02:23:19;;;;;;;16.23;11.38;;;10.50;99.90;;;;;;4984132;28;20441;-77
2023/01/06 02:26:22;;;;;;;17.95;10.90;;;10.50;99.90;;;;;;4968387;28;20054;-77
2023/01/06 02:29:00;;;;;;;15.20;10.70;;;10.50;99.90;;;;;;4982697;28;20046;-76
2023/01/06 02:31:50;;;;;;;15.10;11.10;;;10.50;99.90;;;;;;4983245;28;20050;-76
2023/01/06 02:34:40;;;;;;;14.38;10.70;;;10.50;99.90;;;;;;4982371;28;20054;-76
2023/01/06 02:37:19;;;;;;;14.35;10.40;;;10.60;99.90;;;;;;4985581;28;20146;-76
2023/01/06 02:39:59;;;;;;;14.00;10.43;;;10.50;99.90;;;;;;4984113;28;20054;-77
2023/01/06 02:43:03;;;;;;;11.55;9.30;;;10.50;99.90;;;;;;4988154;28;20045;-77
2023/01/06 02:45:41;;;;;;;11.70;9.27;;;10.50;99.90;;;;;;4961969;28;20421;-76
2023/01/06 02:48:38;;;;;;;11.43;8.75;;;10.50;99.90;;;;;;4984773;28;20054;-76
2023/01/06 02:51:12;;;;;;;11.93;9.07;;;10.60;99.90;;;;;;4969445;28;20485;-76
2023/01/06 02:54:06;;;;;;;13.48;8.85;;;10.60;99.90;;;;;;4979806;28;20054;-76
2023/01/06 02:56:39;;;;;;;12.48;8.77;;;10.60;99.90;;;;;;4965916;28;20511;-77
2023/01/06 02:59:20;;;;;;;11.02;8.30;;;10.60;99.90;;;;;;4984295;28;20129;-78
2023/01/06 03:01:49;;;;;;;12.07;9.00;;;10.60;99.90;;;;;;4984916;28;21248;-76
2023/01/06 03:04:21;;;;;;;11.30;8.85;;;10.50;99.90;;;;;;4971806;28;20600;-77
2023/01/06 03:06:52;;;;;;;10.27;9.13;;;10.60;99.90;;;;;;4986721;28;20458;-77
2023/01/06 03:09:22;;;;;;;11.13;8.90;;;10.60;99.90;;;;;;4968041;28;20038;-77
2023/01/06 03:11:51;;;;;;;12.75;9.55;;;10.60;99.90;;;;;;4986016;28;20054;-76
2023/01/06 03:14:29;;;;;;;11.95;9.95;;;10.60;99.90;;;;;;4972693;28;20492;-77
2023/01/06 03:16:55;;;;;;;10.18;9.13;;;10.60;99.90;;;;;;4971756;28;20056;-77
2023/01/06 03:19:22;;;;;;;11.30;8.82;;;10.60;99.90;;;;;;4970374;28;20061;-77
2023/01/06 03:21:49;;;;;;;10.13;8.65;;;10.60;99.90;;;;;;4967224;28;20050;-77
2023/01/06 03:24:16;;;;;;;10.13;9.07;;;10.60;99.90;;;;;;4987493;28;20058;-76
2023/01/06 03:26:44;;;;;;;14.02;9.50;;;10.50;99.90;;;;;;4957968;28;20049;-76
2023/01/06 03:29:12;;;;;;;12.07;9.15;;;10.50;99.90;;;;;;4969262;28;20501;-75
2023/01/06 03:31:56;;;;;;;12.85;9.30;;;10.50;99.90;;;;;;4967046;28;20441;-73
2023/01/06 03:34:30;;;;;;;11.60;9.05;;;10.50;99.90;;;;;;5001834;28;20034;-72
2023/01/06 03:37:33;;;;;;;11.48;10.15;;;10.60;99.90;;;;;;5004528;28;20121;-72
2023/01/06 03:40:26;;;;;;;13.48;9.90;;;10.60;99.90;;;;;;5005443;28;20045;-73
2023/01/06 03:43:11;;;;;;;15.88;10.82;;;10.50;99.90;;;;;;4980402;28;20080;-72
2023/01/06 03:45:49;;;;;;;12.30;10.27;;;10.50;99.90;;;;;;4972751;28;20050;-72
2023/01/06 03:48:40;;;;;;;14.05;9.70;;;10.50;99.90;;;;;;4985577;28;20052;-72
2023/01/06 03:51:33;;;;;;;11.48;9.50;;;10.50;99.90;;;;;;4984732;28;20240;-72
2023/01/06 03:54:12;;;;;;;11.20;9.98;;;10.50;99.90;;;;;;4998460;28;20050;-72
2023/01/06 03:56:54;;;;;;;11.38;9.90;;;10.60;99.90;;;;;;4987975;28;20057;-72
2023/01/06 03:59:25;;;;;;;10.45;9.38;;;10.50;99.90;;;;;;4974232;28;20042;-72
2023/01/06 04:01:51;;;;;;;12.20;9.70;;;10.50;99.90;;;;;;5003741;28;20050;-72
2023/01/06 04:04:18;;;;;;;9.77;8.85;;;10.50;99.90;;;;;;4971804;28;20048;-77
2023/01/06 04:06:44;;;;;;;9.77;8.70;;;10.50;99.90;;;;;;4988360;28;20046;-78
2023/01/06 04:09:10;;;;;;;11.38;8.02;;;10.50;99.90;;;;;;4993846;28;20042;-77
2023/01/06 04:14:20;;;;;;;8.13;6.93;;;10.50;99.90;;;;;;4986830;28;20053;-73
2023/01/06 04:16:46;;;;;;;8.63;6.88;;;10.50;99.90;;;;;;4971533;28;20463;-73
2023/01/06 04:19:12;;;;;;;8.40;6.43;;;10.50;99.90;;;;;;5005268;28;20487;-73
2023/01/06 04:21:38;;;;;;;9.07;6.75;;;10.50;99.90;;;;;;5011747;28;20056;-73
2023/01/06 04:24:04;;;;;;;7.28;6.40;;;10.50;99.90;;;;;;4974820;28;20042;-73
2023/01/06 04:26:32;;;;;;;10.73;6.18;;;10.50;99.90;;;;;;4974903;28;20061;-73
2023/01/06 04:29:00;;;;;;;9.20;6.35;;;10.50;99.90;;;;;;4992478;28;20201;-73
2023/01/06 04:31:25;;;;;;;8.02;5.75;;;10.50;99.90;;;;;;4991226;28;20049;-73
2023/01/06 04:33:51;;;;;;;7.63;5.40;;;10.60;99.90;;;;;;5009853;28;20049;-73
2023/01/06 04:36:19;;;;;;;8.57;6.18;;;10.50;99.90;;;;;;4991039;28;20041;-79
2023/01/06 04:38:45;;;;;;;6.25;5.55;;;10.50;99.90;;;;;;4974781;28;20057;-78
2023/01/06 04:41:11;;;;;;;6.20;5.10;;;10.50;99.90;;;;;;4974908;28;20118;-72
2023/01/06 04:43:37;;;;;;;6.72;4.68;;;10.50;99.90;;;;;;4991384;28;20461;-75
2023/01/06 04:46:03;;;;;;;7.15;5.88;;;10.60;99.90;;;;;;4971558;28;20046;-72
2023/01/06 04:48:29;;;;;;;7.07;5.30;;;10.60;99.90;;;;;;4975358;28;20116;-72
2023/01/06 04:51:02;;;;;;;8.75;5.78;;;10.60;99.90;;;;;;4970664;28;20089;-73
2023/01/06 04:53:28;;;;;;;6.75;5.47;;;10.60;99.90;;;;;;5008805;28;20037;-72
2023/01/06 04:55:54;;;;;;;6.78;5.97;;;10.60;99.90;;;;;;5007553;28;20037;-73
2023/01/06 04:58:19;;;;;;;8.25;6.85;;;10.60;99.90;;;;;;5009438;28;20049;-72
2023/01/06 05:00:45;;;;;;;10.05;8.35;;;10.60;99.90;;;;;;4987796;28;20034;-72
2023/01/06 05:03:11;;;;;;;10.75;8.27;;;10.60;99.90;;;;;;4999008;28;21126;-73
2023/01/06 05:05:37;;;;;;;9.55;8.65;;;10.60;99.90;;;;;;4973192;28;20086;-73
2023/01/06 05:08:03;;;;;;;11.18;9.25;;;10.60;99.90;;;;;;4988429;28;20489;-73
2023/01/06 05:10:29;;;;;;;10.65;9.35;;;10.60;99.90;;;;;;5006534;28;20055;-73
2023/01/06 05:12:55;;;;;;;10.60;9.38;;;10.60;99.90;;;;;;4982728;28;20075;-72
2023/01/06 05:15:20;;;;;;;12.00;9.65;;;10.60;99.90;;;;;;5004331;28;20176;-73
2023/01/06 05:17:46;;;;;;;10.40;8.95;;;10.50;99.90;;;;;;4972323;28;20377;-72
2023/01/06 05:20:12;;;;;;;11.25;8.98;;;10.60;99.90;;;;;;4972832;28;20129;-72
2023/01/06 05:22:38;;;;;;;9.88;8.48;;;10.60;99.90;;;;;;5006010;28;20037;-72
2023/01/06 05:25:04;;;;;;;8.95;7.70;;;10.60;99.90;;;;;;4973162;28;20045;-72
2023/01/06 05:27:30;;;;;;;8.63;7.82;;;10.60;99.90;;;;;;4987602;28;21621;-72
2023/01/06 05:29:56;;;;;;;8.55;7.65;;;10.60;99.90;;;;;;5008377;28;20038;-73
2023/01/06 05:32:21;;;;;;;7.93;6.75;;;10.60;99.90;;;;;;4981966;28;20408;-73
2023/01/06 05:34:47;;;;;;;6.70;5.57;;;10.60;99.90;;;;;;4966113;28;20049;-73
2023/01/06 05:37:13;;;;;;;6.13;5.45;;;10.60;99.90;;;;;;4987983;28;20041;-72
2023/01/06 05:39:39;;;;;;;7.68;5.68;;;10.60;99.90;;;;;;5007051;28;20072;-74
2023/01/06 05:42:05;;;;;;;7.38;4.80;;;10.60;99.90;;;;;;4987651;28;20034;-73
2023/01/06 05:44:30;;;;;;;6.88;4.97;;;10.70;99.90;;;;;;4982992;28;20184;-74
2023/01/06 05:46:56;;;;;;;6.53;5.38;;;10.70;99.90;;;;;;4986829;28;20520;-74
2023/01/06 05:49:22;;;;;;;6.90;5.65;;;10.70;99.90;;;;;;4957106;28;20048;-74
2023/01/06 05:51:48;;;;;;;8.82;5.50;;;10.60;99.90;;;;;;4954841;28;20408;-74
2023/01/06 05:54:13;;;;;;;9.07;6.47;;;10.60;99.90;;;;;;4956701;28;20042;-75
2023/01/06 05:56:39;;;;;;;7.55;6.03;;;10.60;99.90;;;;;;4955980;28;20049;-74
2023/01/06 05:59:05;;;;;;;9.05;6.63;;;10.60;99.90;;;;;;4990069;28;20048;-73
2023/01/06 06:01:31;;;;;;;7.05;6.35;;;10.50;99.90;;;;;;4988984;28;20042;-71
2023/01/06 06:03:58;;;;;;;8.63;7.10;;;10.50;99.90;;;;;;4988044;28;20294;-72
2023/01/06 06:06:26;;;;;;;8.85;8.05;;;10.50;99.90;;;;;;4972351;28;20082;-72
2023/01/06 06:08:52;;;;;;;8.80;7.90;;;10.50;99.90;;;;;;4957540;28;20045;-73
2023/01/06 06:11:19;;;;;;;8.45;7.65;;;10.50;99.90;;;;;;4987198;28;20046;-73
2023/01/06 06:13:53;;;;;;;11.23;9.55;;;10.50;99.90;;;;;;4989078;28;20056;-72
2023/01/06 06:16:24;;;;;;;10.88;9.45;;;10.50;99.90;;;;;;4983983;28;20136;-73
2023/01/06 06:18:52;;;;;;;10.57;9.57;;;10.50;99.90;;;;;;4969547;28;20519;-73
2023/01/06 06:21:21;;;;;;;11.20;10.02;;;10.50;99.90;;;;;;5006637;28;20116;-73
2023/01/06 06:23:47;;;;;;;11.10;9.98;;;10.50;99.90;;;;;;5008468;28;20404;-71
2023/01/06 06:26:13;;;;;;;10.20;9.20;;;10.40;99.90;;;;;;4967922;28;20121;-75
2023/01/06 06:28:40;;;;;;;10.93;9.93;;;10.50;99.90;;;;;;4971360;28;20053;-73
2023/01/06 06:31:10;;;;;;;11.98;10.88;;;10.50;99.90;;;;;;4987773;28;20063;-71
2023/01/06 06:33:36;;;;;;;12.32;11.07;;;10.40;99.90;;;;;;5004705;28;20596;-72
2023/01/06 06:36:03;;;;;;;12.02;10.93;;;10.40;99.90;;;;;;4988240;28;20049;-74
2023/01/06 06:38:29;;;;;;;12.07;10.88;;;10.40;99.90;;;;;;5003072;28;20046;-73
2023/01/06 06:40:54;;;;;;;12.18;11.18;;;10.40;99.90;;;;;;5005934;28;20408;-72
2023/01/06 06:43:20;;;;;;;11.98;10.98;;;10.40;99.90;;;;;;4970051;28;20064;-74
2023/01/06 06:45:47;;;;;;;12.60;11.35;;;10.30;99.90;;;;;;4988825;28;20073;-72
2023/01/06 06:48:13;;;;;;;13.23;11.95;;;10.30;99.90;;;;;;4986917;28;20052;-72
2023/01/06 06:50:42;;;;;;;12.80;11.70;;;10.30;99.90;;;;;;4953877;28;20081;-72
2023/01/06 06:53:08;;;;;;;14.32;13.02;;;10.30;99.90;;;;;;4966333;28;20049;-72
2023/01/06 06:55:33;;;;;;;13.75;12.45;;;10.30;99.90;;;;;;4971684;28;20050;-73
2023/01/06 06:57:59;;;;;;;15.30;13.82;;;10.30;99.90;;;;;;4973617;28;20046;-77
2023/01/06 07:00:25;;;;;;;14.32;13.02;;;10.20;99.90;;;;;;4985127;28;20412;-77
2023/01/06 07:02:51;;;;;;;15.18;13.85;;;10.20;99.90;;;;;;4962567;28;20062;-79
2023/01/06 07:05:17;;;;;;;14.68;13.38;;;10.20;99.90;;;;;;4984614;28;20571;-77
2023/01/06 07:07:44;;;;;;;16.00;14.52;;;10.20;99.90;;;;;;4978235;28;20117;-77
2023/01/06 07:10:15;;;;;;;15.45;14.13;;;10.20;99.90;;;;;;4980155;28;20034;-77
2023/01/06 07:12:40;;;;;;;16.33;15.00;;;10.20;99.90;;;;;;4964203;28;20086;-75
2023/01/06 07:15:07;;;;;;;16.13;14.80;;;10.20;99.90;;;;;;4964067;28;20042;-76
2023/01/06 07:17:33;;;;;;;18.10;16.50;;;10.10;99.90;;;;;;4965825;28;20046;-76
2023/01/06 07:19:59;;;;;;;16.95;15.55;;;10.10;99.90;;;;;;4983407;28;20045;-77
2023/01/06 07:22:24;;;;;;;15.73;14.43;;;10.10;99.90;;;;;;4983222;28;20081;-76
2023/01/06 07:24:50;;;;;;;17.40;15.73;;;10.10;99.90;;;;;;4967652;28;20050;-74
2023/01/06 07:27:16;;;;;;;17.33;15.80;;;10.20;99.90;;;;;;4980059;28;20100;-73
2023/01/06 07:29:42;;;;;;;16.95;15.45;;;10.10;99.90;;;;;;4946684;28;20043;-73
2023/01/06 07:32:08;;;;;;;15.32;14.02;;;10.10;99.90;;;;;;4963627;28;20039;-76
2023/01/06 07:34:34;;;;;;;14.52;13.23;;;10.10;99.90;;;;;;4979023;28;20067;-76
2023/01/06 07:37:00;;;;;;;14.85;13.57;;;10.20;99.90;;;;;;4965376;28;20061;-77
2023/01/06 07:39:26;;;;;;;14.90;13.50;;;10.20;99.90;;;;;;4948331;28;20517;-78
2023/01/06 07:41:51;;;;;;;15.13;13.70;;;10.20;99.90;;;;;;4951529;28;20046;-78
2023/01/06 07:44:17;;;;;;;15.32;13.88;;;10.20;99.90;;;;;;4977525;28;20055;-77
2023/01/06 07:46:43;;;;;;;14.02;12.82;;;10.20;99.90;;;;;;4962590;28;20440;-77
2023/01/06 07:49:09;;;;;;;14.48;13.13;;;10.20;99.90;;;;;;4958769;28;21094;-77
2023/01/06 07:51:37;;;;;;;12.93;11.73;;;10.20;99.90;;;;;;4956174;28;20103;-77
2023/01/06 07:54:03;;;;;;;10.45;9.45;;;10.20;99.90;;;;;;4952446;28;20073;-79
2023/01/06 07:56:29;;;;;;;9.05;8.15;;;10.20;99.90;;;;;;4982010;28;20438;-77
2023/01/06 07:58:54;;;;;;;8.75;7.95;;;10.20;99.90;;;;;;4972288;28;20133;-77
2023/01/06 08:01:20;;;;;;;9.32;8.40;;;10.20;99.90;;;;;;4970057;28;20065;-77
2023/01/06 08:03:46;;;;;;;6.00;4.95;;;10.20;99.90;;;;;;4955718;28;20050;-74
2023/01/06 08:06:12;;;;;;;6.40;3.90;;;10.20;99.90;;;;;;4967901;28;20039;-72
2023/01/06 08:08:39;;;;;;;5.22;3.10;;;10.30;99.90;;;;;;4966041;28;20136;-74
2023/01/06 08:11:07;;;;;;;7.13;2.67;;;10.10;99.90;;;;;;4989143;28;20035;-72
2023/01/06 08:13:33;;;;;;;8.32;1.95;;;10.10;99.90;;;;;;4969017;28;20039;-72
2023/01/06 08:16:03;;;;;;;6.80;2.28;;;10.00;99.90;;;;;;4985468;28;20489;-72
2023/01/06 08:18:29;;;;;;;6.20;2.13;;;9.90;99.90;;;;;;4986842;28;20083;-72
2023/01/06 08:21:02;;;;;;;6.85;1.90;;;9.90;99.90;;;;;;4968134;28;20046;-73
2023/01/06 08:23:29;;;;;;;6.55;1.90;;;9.80;99.90;;;;;;4996528;28;20503;-73
2023/01/06 08:26:06;;;;;;;5.80;1.83;;;9.70;99.90;;;;;;4986383;28;20038;-72
2023/01/06 08:28:33;;;;;;;5.55;1.38;;;9.70;99.90;;;;;;4982684;28;20361;-73
2023/01/06 08:30:59;;;;;;;7.57;1.80;;;9.50;99.90;;;;;;4971730;28;20077;-73
2023/01/06 08:33:25;;;;;;;5.85;1.75;;;9.50;99.90;;;;;;4984793;28;20081;-73
2023/01/06 08:36:02;;;;;;;6.18;1.70;;;9.40;99.90;;;;;;4983152;28;20445;-72
2023/01/06 08:38:29;;;;;;;6.30;1.50;;;9.40;99.90;;;;;;4967085;28;20073;-73
2023/01/06 08:40:56;;;;;;;5.00;1.38;;;9.30;99.90;;;;;;4986659;28;20093;-73
2023/01/06 08:43:22;;;;;;;6.30;1.75;;;9.20;99.90;;;;;;4969198;28;20049;-73
2023/01/06 08:45:49;;;;;;;7.60;1.77;;;9.20;99.90;;;;;;4984760;28;20152;-73
2023/01/06 08:48:15;;;;;;;7.72;1.48;;;9.20;99.90;;;;;;4986481;28;20042;-77
2023/01/06 08:50:41;;;;;;;5.85;1.30;;;9.10;99.90;;;;;;4985771;28;20078;-78
2023/01/06 08:53:09;;;;;;;7.88;1.30;;;9.10;99.90;;;;;;4962945;28;20046;-77
2023/01/06 08:55:38;;;;;;;5.75;1.38;;;9.10;99.90;;;;;;4970652;28;20059;-76
2023/01/06 08:58:04;;;;;;;6.45;1.33;;;9.00;99.90;;;;;;4969340;28;20042;-77
2023/01/06 09:00:30;;;;;;;8.48;1.52;;;9.00;99.90;;;;;;4966695;28;20042;-77
2023/01/06 09:02:56;;;;;;;6.40;1.55;;;9.00;99.90;;;;;;4983306;28;20515;-77
2023/01/06 09:05:22;;;;;;;9.00;2.10;;;9.00;99.90;;;;;;4965572;28;20053;-77
2023/01/06 09:07:49;;;;;;;6.22;1.15;;;9.00;99.90;;;;;;4962994;28;20057;-78
2023/01/06 09:10:16;;;;;;;8.55;1.85;;;9.00;99.90;;;;;;4969848;28;20049;-77
2023/01/06 09:12:42;;;;;;;10.43;1.77;;;9.00;99.90;;;;;;4982827;28;20061;-77
2023/01/06 09:15:08;;;;;;;5.57;1.17;;;9.00;99.90;;;;;;4985059;28;20042;-78
2023/01/06 09:17:34;;;;;;;7.65;1.42;;;8.90;99.90;;;;;;4967723;28;20054;-78
2023/01/06 09:20:00;;;;;;;8.80;1.30;;;8.90;99.90;;;;;;4952379;28;20370;-77
2023/01/06 09:22:26;;;;;;;7.15;1.10;;;8.90;99.90;;;;;;4968042;28;20073;-78
2023/01/06 09:24:51;;;;;;;12.10;1.60;;;9.00;99.90;;;;;;4954175;28;20057;-77
2023/01/06 09:27:17;;;;;;;8.25;1.52;;;8.90;99.90;;;;;;4968907;28;20050;-76
2023/01/06 09:29:43;;;;;;;9.77;1.70;;;8.90;99.90;;;;;;4969509;28;20038;-76
2023/01/06 09:32:09;;;;;;;6.68;1.20;;;8.90;99.90;;;;;;4981229;28;20105;-76
2023/01/06 09:34:34;;;;;;;7.05;1.77;;;8.90;99.90;;;;;;4967256;28;20074;-77
2023/01/06 09:37:00;;;;;;;9.40;1.52;;;8.90;99.90;;;;;;4950965;28;20046;-76
2023/01/06 09:39:26;;;;;;;7.90;1.25;;;8.90;99.90;;;;;;4969833;28;20050;-77
2023/01/06 09:42:01;;;;;;;8.02;1.30;;;8.90;99.90;;;;;;4984883;28;20047;-77
2023/01/06 09:44:31;;;;;;;9.15;1.30;;;8.90;99.90;;;;;;4967061;28;20105;-76
2023/01/06 09:47:00;;;;;;;11.23;1.60;;;8.90;99.90;;;;;;4965314;28;20055;-77
2023/01/06 09:50:24;;;;;;;9.55;1.95;;;8.90;99.90;;;;;;4982942;28;20476;-77
2023/01/06 09:53:21;;;;;;;7.43;1.17;;;8.90;99.90;;;;;;4920216;29;20131;-77
2023/01/06 09:55:59;;;;;;;9.23;1.50;;;9.00;99.90;;;;;;4994360;28;20105;-77
2023/01/06 09:58:31;;;;;;;8.43;1.67;;;9.00;99.90;;;;;;4984743;28;20092;-77
2023/01/06 10:01:03;;;;;;;10.13;1.20;;;9.00;99.90;;;;;;4979424;28;20078;-76
2023/01/06 10:03:30;;;;;;;11.05;1.38;;;9.00;99.90;;;;;;4976283;28;20042;-77
2023/01/06 10:06:26;;;;;;;10.73;1.90;;;9.00;99.90;;;;;;4984394;28;20386;-76
2023/01/06 10:09:03;;;;;;;10.30;1.60;;;9.00;99.90;;;;;;4982198;28;20049;-77
2023/01/06 10:12:07;;;;;;;8.98;1.20;;;9.00;99.90;;;;;;4967984;28;20069;-77
2023/01/06 10:14:42;;;;;;;11.02;1.77;;;9.00;99.90;;;;;;4935340;28;20560;-77
2023/01/06 10:17:32;;;;;;;10.63;1.67;;;9.10;99.90;;;;;;4985453;28;20053;-76
2023/01/06 10:20:01;;;;;;;10.52;1.65;;;9.10;99.90;;;;;;4980788;28;20077;-76
2023/01/06 10:22:41;;;;;;;10.98;1.58;;;9.10;99.90;;;;;;4968186;28;20050;-76
2023/01/06 10:25:31;;;;;;;10.63;1.63;;;9.10;99.90;;;;;;4964551;28;20317;-77
2023/01/06 10:28:15;;;;;;;;;;;9.20;99.90;;;;;;4981918;28;20057;-77
2023/01/06 10:30:51;;;;;;;11.07;1.73;;;9.20;99.90;;;;;;4983411;28;20662;-77
2023/01/06 10:33:25;;;;;;;6.88;1.23;;;9.20;99.90;;;;;;4969309;28;20059;-79
2023/01/06 10:35:53;;;;;;;6.65;1.42;;;9.30;99.90;;;;;;4964513;28;20053;-78
2023/01/06 10:38:32;;;;;;;9.18;1.67;;;9.30;99.90;;;;;;4961878;28;20035;-77
2023/01/06 10:41:31;;;;;;;11.40;1.77;;;9.30;99.90;;;;;;4983097;28;20046;-77
2023/01/06 10:43:58;;;;;;;9.00;1.75;;;9.40;99.90;;;;;;4976034;28;20069;-72
2023/01/06 10:46:32;;;;;;;8.75;1.48;;;9.40;99.90;;;;;;4957888;28;20077;-72
2023/01/06 10:48:57;;;;;;;10.02;1.50;;;9.50;99.90;;;;;;4985279;28;20372;-71
2023/01/06 10:51:38;;;;;;;9.15;1.50;;;9.50;99.90;;;;;;4955627;28;20053;-71
2023/01/06 10:54:15;;;;;;;;;;;9.50;99.90;;;;;;4964925;28;20064;-72
2023/01/06 10:56:47;;;;;;;8.88;1.75;;;9.50;99.90;;;;;;4965837;28;19921;-72
2023/01/06 10:59:13;;;;;;;9.05;1.58;;;9.50;99.90;;;;;;4974531;28;20253;-72
2023/01/06 11:01:58;;;;;;;11.23;1.92;;;9.50;99.90;;;;;;4984852;28;20058;-72
2023/01/06 11:04:26;;;;;;;13.13;2.20;;;9.50;99.90;;;;;;4953948;28;20084;-77
2023/01/06 11:07:00;;;;;;;9.68;2.38;;;9.50;99.90;;;;;;4966605;28;20077;-77
2023/01/06 11:09:38;;;;;;;11.18;1.85;;;9.60;99.90;;;;;;4959705;28;20497;-77
2023/01/06 11:12:19;;;;;;;9.80;2.60;;;9.60;99.90;;;;;;4963071;28;20098;-77
2023/01/06 11:15:01;;;;;;;10.57;1.58;;;9.70;99.90;;;;;;4976823;28;20054;-78
2023/01/06 11:17:28;;;;;;;12.15;1.75;;;9.70;99.90;;;;;;4964375;28;20481;-77
2023/01/06 11:20:23;;;;;;;10.48;1.63;;;9.70;99.90;;;;;;4975635;28;20402;-77
2023/01/06 11:22:49;;;;;;;9.07;1.45;;;9.70;99.90;;;;;;4964122;28;20051;-77
2023/01/06 11:25:18;;;;;;;10.82;1.98;;;9.80;99.90;;;;;;4983132;28;20650;-78
2023/01/06 11:27:45;;;;;;;11.32;2.17;;;9.80;99.90;;;;;;4962437;28;20054;-77
2023/01/06 11:30:24;;;;;;;11.15;2.10;;;9.90;99.90;;;;;;4979142;28;20497;-78
2023/01/06 11:32:50;;;;;;;13.63;2.10;;;9.90;99.90;;;;;;4979502;28;20525;-77
2023/01/06 11:35:19;;;;;;;9.40;1.73;;;9.90;99.90;;;;;;4979737;28;20161;-76
2023/01/06 11:37:45;;;;;;;10.73;2.35;;;10.00;99.90;;;;;;4972057;28;20051;-77
2023/01/06 11:40:28;;;;;;;11.52;2.20;;;10.00;99.90;;;;;;4963975;28;20460;-77
2023/01/06 11:43:00;;;;;;;12.52;2.10;;;10.00;99.90;;;;;;4982322;28;20239;-78
2023/01/06 11:45:43;;;;;;;9.20;1.80;;;9.90;99.90;;;;;;4981699;28;20505;-76
2023/01/06 11:48:20;;;;;;;8.82;1.67;;;10.00;99.90;;;;;;4960482;28;20042;-78
2023/01/06 11:50:55;;;;;;;8.77;2.20;;;10.00;99.90;;;;;;4966187;28;20046;-75
2023/01/06 11:53:23;;;;;;;8.65;1.88;;;10.00;99.90;;;;;;4982189;28;20111;-76
2023/01/06 11:55:55;;;;;;;12.38;2.45;;;9.90;99.90;;;;;;4966355;28;20058;-76
2023/01/06 11:58:39;;;;;;;9.95;2.15;;;9.90;99.90;;;;;;4981503;28;20050;-77
2023/01/06 12:01:16;;;;;;;8.57;2.13;;;9.90;99.90;;;;;;4983618;28;20085;-77
2023/01/06 12:03:44;;;;;;;10.70;1.95;;;9.80;99.90;;;;;;4964402;28;20073;-77
2023/01/06 12:06:13;;;;;;;8.05;1.55;;;9.80;99.90;;;;;;4964788;28;20138;-76
2023/01/06 12:08:58;;;;;;;7.05;2.25;;;9.70;99.90;;;;;;4965556;28;20039;-77
2023/01/06 12:11:44;;;;;;;12.63;1.83;;;9.80;99.90;;;;;;4980850;28;20042;-76
2023/01/06 12:14:22;;;;;;;7.65;1.85;;;9.80;99.90;;;;;;4981501;28;20069;-75
2023/01/06 12:17:04;;;;;;;9.23;1.88;;;9.80;99.90;;;;;;4997756;28;20087;-76
2023/01/06 12:19:56;;;;;;;9.57;1.80;;;9.80;99.90;;;;;;4980599;28;20054;-77
2023/01/06 12:22:52;;;;;;;9.77;1.88;;;9.80;99.90;;;;;;4977830;28;20050;-77
2023/01/06 12:25:22;;;;;;;11.18;1.90;;;9.80;99.90;;;;;;4962161;28;20066;-77
2023/01/06 12:27:53;;;;;;;7.13;1.27;;;9.70;99.90;;;;;;4963475;28;20508;-75
2023/01/06 12:30:31;;;;;;;8.65;1.92;;;9.70;99.90;;;;;;4979361;28;20042;-77
2023/01/06 12:33:06;;;;;;;11.73;1.85;;;9.70;99.90;;;;;;4982195;28;20672;-78
2023/01/06 12:35:35;;;;;;;12.55;2.35;;;9.60;99.90;;;;;;4979878;28;20588;-77
2023/01/06 12:38:13;;;;;;;9.77;1.58;;;9.60;99.90;;;;;;4983976;28;20456;-77
2023/01/06 12:40:56;;;;;;;10.75;1.80;;;9.60;99.90;;;;;;4978382;28;20494;-77
2023/01/06 12:43:27;;;;;;;12.13;2.10;;;9.60;99.90;;;;;;4984973;28;20050;-77
2023/01/06 12:46:30;;;;;;;10.05;1.83;;;9.60;99.90;;;;;;4985571;28;20042;-77
2023/01/06 12:49:04;;;;;;;13.18;1.95;;;9.60;99.90;;;;;;4952253;28;20050;-77
2023/01/06 12:51:43;;;;;;;14.07;2.40;;;9.60;99.90;;;;;;4985875;28;20046;-76
2023/01/06 12:54:33;;;;;;;10.38;1.92;;;9.70;99.90;;;;;;4970043;28;20046;-76
2023/01/06 12:57:11;;;;;;;13.07;2.15;;;9.70;99.90;;;;;;4968331;28;20145;-75
2023/01/06 12:59:52;;;;;;;9.70;2.00;;;9.70;99.90;;;;;;4968704;28;20050;-78
2023/01/06 13:02:42;;;;;;;11.80;2.03;;;9.70;99.90;;;;;;4965684;28;20046;-72
2023/01/06 13:05:19;;;;;;;12.98;2.17;;;9.70;99.90;;;;;;4984858;28;20061;-72